sensor_id;sensor_type;location;lat;lon;timestamp;P1;durP1;ratioP1;P2;durP2;ratioP2
43998;SDS011;51319;52.162;5.302;2024-01-30T00:01:09;27.25;;;13.95;;
43998;SDS011;51319;52.162;5.302;2024-01-30T00:03:36;19.75;;;13.63;;
43998;SDS011;51319;52.162;5.302;2024-01-30T00:06:03;24.02;;;13.30;;
43998;SDS011;51319;52.162;5.302;2024-01-30T00:08:31;21.70;;;14.07;;
43998;SDS011;51319;52.162;5.302;2024-01-30T00:10:58;25.48;;;14.50;;
43998;SDS011;51319;52.162;5.302;2024-01-30T00:13:25;21.80;;;13.88;;
43998;SDS011;51319;52.162;5.302;2024-01-30T00:15:52;23.67;;;13.45;;
43998;SDS011;51319;52.162;5.302;2024-01-30T00:18:20;22.23;;;13.50;;
43998;SDS011;51319;52.162;5.302;2024-01-30T00:20:47;25.67;;;14.40;;
43998;SDS011;51319;52.162;5.302;2024-01-30T00:23:14;21.85;;;12.85;;
43998;SDS011;51319;52.162;5.302;2024-01-30T00:25:41;21.42;;;13.70;;
43998;SDS011;51319;52.162;5.302;2024-01-30T00:28:11;20.80;;;13.45;;
43998;SDS011;51319;52.162;5.302;2024-01-30T00:30:39;21.70;;;13.73;;
43998;SDS011;51319;52.162;5.302;2024-01-30T00:33:06;23.58;;;13.70;;
43998;SDS011;51319;52.162;5.302;2024-01-30T00:35:34;21.65;;;13.50;;
43998;SDS011;51319;52.162;5.302;2024-01-30T00:38:01;19.92;;;13.63;;
43998;SDS011;51319;52.162;5.302;2024-01-30T00:40:28;20.13;;;13.15;;
43998;SDS011;51319;52.162;5.302;2024-01-30T00:42:55;21.15;;;13.90;;
43998;SDS011;51319;52.162;5.302;2024-01-30T00:45:22;23.75;;;14.25;;
43998;SDS011;51319;52.162;5.302;2024-01-30T00:47:50;25.13;;;13.82;;
43998;SDS011;51319;52.162;5.302;2024-01-30T00:50:17;29.17;;;13.73;;
43998;SDS011;51319;52.162;5.302;2024-01-30T00:52:44;21.75;;;13.43;;
43998;SDS011;51319;52.162;5.302;2024-01-30T00:55:11;22.35;;;14.02;;
43998;SDS011;51319;52.162;5.302;2024-01-30T00:57:39;21.30;;;13.90;;
43998;SDS011;51319;52.162;5.302;2024-01-30T01:00:10;21.05;;;13.38;;
43998;SDS011;51319;52.162;5.302;2024-01-30T01:02:39;20.38;;;12.93;;
43998;SDS011;51319;52.162;5.302;2024-01-30T01:05:09;32.85;;;14.30;;
43998;SDS011;51319;52.162;5.302;2024-01-30T01:07:36;24.17;;;14.57;;
43998;SDS011;51319;52.162;5.302;2024-01-30T01:10:03;22.65;;;14.38;;
43998;SDS011;51319;52.162;5.302;2024-01-30T01:12:30;29.88;;;15.48;;
43998;SDS011;51319;52.162;5.302;2024-01-30T01:14:57;25.10;;;13.32;;
43998;SDS011;51319;52.162;5.302;2024-01-30T01:17:24;24.55;;;13.55;;
43998;SDS011;51319;52.162;5.302;2024-01-30T01:19:51;25.95;;;14.85;;
43998;SDS011;51319;52.162;5.302;2024-01-30T01:22:18;21.15;;;12.82;;
43998;SDS011;51319;52.162;5.302;2024-01-30T01:24:45;23.15;;;13.80;;
43998;SDS011;51319;52.162;5.302;2024-01-30T01:27:12;20.42;;;13.40;;
43998;SDS011;51319;52.162;5.302;2024-01-30T01:29:39;26.92;;;13.55;;
43998;SDS011;51319;52.162;5.302;2024-01-30T01:32:06;20.38;;;12.85;;
43998;SDS011;51319;52.162;5.302;2024-01-30T01:34:33;20.88;;;13.50;;
43998;SDS011;51319;52.162;5.302;2024-01-30T01:37:01;23.85;;;13.45;;
43998;SDS011;51319;52.162;5.302;2024-01-30T01:39:28;25.50;;;14.13;;
43998;SDS011;51319;52.162;5.302;2024-01-30T01:41:55;22.35;;;13.57;;
43998;SDS011;51319;52.162;5.302;2024-01-30T01:44:22;26.95;;;14.85;;
43998;SDS011;51319;52.162;5.302;2024-01-30T01:46:49;23.75;;;13.07;;
43998;SDS011;51319;52.162;5.302;2024-01-30T01:49:16;22.52;;;13.10;;
43998;SDS011;51319;52.162;5.302;2024-01-30T01:51:45;22.00;;;13.55;;
43998;SDS011;51319;52.162;5.302;2024-01-30T01:54:14;21.27;;;14.32;;
43998;SDS011;51319;52.162;5.302;2024-01-30T01:56:42;21.27;;;14.15;;
43998;SDS011;51319;52.162;5.302;2024-01-30T01:59:09;25.42;;;14.85;;
43998;SDS011;51319;52.162;5.302;2024-01-30T02:01:36;21.40;;;13.77;;
43998;SDS011;51319;52.162;5.302;2024-01-30T02:04:04;21.52;;;13.77;;
43998;SDS011;51319;52.162;5.302;2024-01-30T02:06:31;21.52;;;13.85;;
43998;SDS011;51319;52.162;5.302;2024-01-30T02:08:59;26.92;;;14.13;;
43998;SDS011;51319;52.162;5.302;2024-01-30T02:11:27;24.40;;;14.98;;
43998;SDS011;51319;52.162;5.302;2024-01-30T02:13:55;21.95;;;13.85;;
43998;SDS011;51319;52.162;5.302;2024-01-30T02:16:22;23.50;;;14.43;;
43998;SDS011;51319;52.162;5.302;2024-01-30T02:18:49;26.95;;;14.10;;
43998;SDS011;51319;52.162;5.302;2024-01-30T02:21:17;21.42;;;14.13;;
43998;SDS011;51319;52.162;5.302;2024-01-30T02:23:44;31.80;;;15.63;;
43998;SDS011;51319;52.162;5.302;2024-01-30T02:26:13;22.83;;;14.25;;
43998;SDS011;51319;52.162;5.302;2024-01-30T02:28:40;20.80;;;14.02;;
43998;SDS011;51319;52.162;5.302;2024-01-30T02:31:07;20.88;;;13.32;;
43998;SDS011;51319;52.162;5.302;2024-01-30T02:33:34;22.70;;;13.77;;
43998;SDS011;51319;52.162;5.302;2024-01-30T02:36:01;26.05;;;14.25;;
43998;SDS011;51319;52.162;5.302;2024-01-30T02:38:28;25.67;;;14.40;;
43998;SDS011;51319;52.162;5.302;2024-01-30T02:40:55;17.95;;;13.05;;
43998;SDS011;51319;52.162;5.302;2024-01-30T02:43:23;20.92;;;12.98;;
43998;SDS011;51319;52.162;5.302;2024-01-30T02:45:50;21.83;;;13.88;;
43998;SDS011;51319;52.162;5.302;2024-01-30T02:48:17;20.58;;;13.85;;
43998;SDS011;51319;52.162;5.302;2024-01-30T02:50:44;27.35;;;14.40;;
43998;SDS011;51319;52.162;5.302;2024-01-30T02:53:12;22.90;;;14.40;;
43998;SDS011;51319;52.162;5.302;2024-01-30T02:55:39;22.85;;;13.25;;
43998;SDS011;51319;52.162;5.302;2024-01-30T02:58:06;20.50;;;13.25;;
43998;SDS011;51319;52.162;5.302;2024-01-30T03:00:33;21.73;;;13.10;;
43998;SDS011;51319;52.162;5.302;2024-01-30T03:03:00;28.08;;;14.13;;
43998;SDS011;51319;52.162;5.302;2024-01-30T03:05:28;23.48;;;13.32;;
43998;SDS011;51319;52.162;5.302;2024-01-30T03:07:55;25.13;;;12.88;;
43998;SDS011;51319;52.162;5.302;2024-01-30T03:10:22;20.13;;;12.77;;
43998;SDS011;51319;52.162;5.302;2024-01-30T03:12:49;20.65;;;13.23;;
43998;SDS011;51319;52.162;5.302;2024-01-30T03:15:17;21.90;;;13.57;;
43998;SDS011;51319;52.162;5.302;2024-01-30T03:17:44;18.92;;;13.07;;
43998;SDS011;51319;52.162;5.302;2024-01-30T03:20:11;24.65;;;13.55;;
43998;SDS011;51319;52.162;5.302;2024-01-30T03:22:38;24.48;;;14.50;;
43998;SDS011;51319;52.162;5.302;2024-01-30T03:25:05;24.60;;;14.85;;
43998;SDS011;51319;52.162;5.302;2024-01-30T03:27:32;22.25;;;14.20;;
43998;SDS011;51319;52.162;5.302;2024-01-30T03:29:59;26.20;;;14.55;;
43998;SDS011;51319;52.162;5.302;2024-01-30T03:32:26;24.33;;;14.25;;
43998;SDS011;51319;52.162;5.302;2024-01-30T03:34:53;25.27;;;15.13;;
43998;SDS011;51319;52.162;5.302;2024-01-30T03:37:21;26.75;;;15.18;;
43998;SDS011;51319;52.162;5.302;2024-01-30T03:39:48;24.38;;;15.85;;
43998;SDS011;51319;52.162;5.302;2024-01-30T03:42:16;25.17;;;15.02;;
43998;SDS011;51319;52.162;5.302;2024-01-30T03:44:43;26.17;;;14.93;;
43998;SDS011;51319;52.162;5.302;2024-01-30T03:47:10;24.73;;;14.15;;
43998;SDS011;51319;52.162;5.302;2024-01-30T03:49:37;25.52;;;15.93;;
43998;SDS011;51319;52.162;5.302;2024-01-30T03:52:08;28.35;;;15.98;;
43998;SDS011;51319;52.162;5.302;2024-01-30T03:54:35;23.70;;;14.60;;
43998;SDS011;51319;52.162;5.302;2024-01-30T03:57:02;22.98;;;13.07;;
43998;SDS011;51319;52.162;5.302;2024-01-30T03:59:30;19.88;;;12.23;;
43998;SDS011;51319;52.162;5.302;2024-01-30T04:01:57;24.52;;;13.30;;
43998;SDS011;51319;52.162;5.302;2024-01-30T04:04:24;21.65;;;13.63;;
43998;SDS011;51319;52.162;5.302;2024-01-30T04:06:51;25.05;;;14.02;;
43998;SDS011;51319;52.162;5.302;2024-01-30T04:09:18;22.50;;;13.60;;
43998;SDS011;51319;52.162;5.302;2024-01-30T04:11:45;19.58;;;13.02;;
43998;SDS011;51319;52.162;5.302;2024-01-30T04:14:12;22.73;;;13.88;;
43998;SDS011;51319;52.162;5.302;2024-01-30T04:16:40;23.48;;;12.85;;
43998;SDS011;51319;52.162;5.302;2024-01-30T04:19:07;18.20;;;12.90;;
43998;SDS011;51319;52.162;5.302;2024-01-30T04:21:34;22.50;;;12.85;;
43998;SDS011;51319;52.162;5.302;2024-01-30T04:24:01;24.23;;;13.25;;
43998;SDS011;51319;52.162;5.302;2024-01-30T04:26:27;21.73;;;13.23;;
43998;SDS011;51319;52.162;5.302;2024-01-30T04:28:55;17.35;;;11.52;;
43998;SDS011;51319;52.162;5.302;2024-01-30T04:31:22;19.55;;;11.20;;
43998;SDS011;51319;52.162;5.302;2024-01-30T04:33:49;17.80;;;11.63;;
43998;SDS011;51319;52.162;5.302;2024-01-30T04:36:16;23.08;;;13.13;;
43998;SDS011;51319;52.162;5.302;2024-01-30T04:38:43;21.83;;;13.18;;
43998;SDS011;51319;52.162;5.302;2024-01-30T04:41:12;24.15;;;12.43;;
43998;SDS011;51319;52.162;5.302;2024-01-30T04:43:39;18.27;;;11.50;;
43998;SDS011;51319;52.162;5.302;2024-01-30T04:46:07;18.23;;;11.15;;
43998;SDS011;51319;52.162;5.302;2024-01-30T04:48:34;17.05;;;11.60;;
43998;SDS011;51319;52.162;5.302;2024-01-30T04:51:01;22.67;;;12.18;;
43998;SDS011;51319;52.162;5.302;2024-01-30T04:53:32;22.30;;;13.13;;
43998;SDS011;51319;52.162;5.302;2024-01-30T04:55:59;19.77;;;12.27;;
43998;SDS011;51319;52.162;5.302;2024-01-30T04:58:26;16.77;;;11.30;;
43998;SDS011;51319;52.162;5.302;2024-01-30T05:00:53;19.00;;;11.73;;
43998;SDS011;51319;52.162;5.302;2024-01-30T05:03:20;21.48;;;12.13;;
43998;SDS011;51319;52.162;5.302;2024-01-30T05:05:49;16.05;;;11.68;;
43998;SDS011;51319;52.162;5.302;2024-01-30T05:08:16;21.20;;;11.73;;
43998;SDS011;51319;52.162;5.302;2024-01-30T05:10:43;16.25;;;10.73;;
43998;SDS011;51319;52.162;5.302;2024-01-30T05:13:11;18.17;;;11.85;;
43998;SDS011;51319;52.162;5.302;2024-01-30T05:15:40;14.27;;;10.57;;
43998;SDS011;51319;52.162;5.302;2024-01-30T05:18:07;16.98;;;10.48;;
43998;SDS011;51319;52.162;5.302;2024-01-30T05:20:34;20.77;;;11.30;;
43998;SDS011;51319;52.162;5.302;2024-01-30T05:23:01;19.05;;;11.32;;
43998;SDS011;51319;52.162;5.302;2024-01-30T05:25:28;15.27;;;8.85;;
43998;SDS011;51319;52.162;5.302;2024-01-30T05:27:55;16.50;;;10.98;;
43998;SDS011;51319;52.162;5.302;2024-01-30T05:30:22;17.83;;;11.50;;
43998;SDS011;51319;52.162;5.302;2024-01-30T05:32:49;21.00;;;11.90;;
43998;SDS011;51319;52.162;5.302;2024-01-30T05:35:16;15.20;;;10.45;;
43998;SDS011;51319;52.162;5.302;2024-01-30T05:37:43;19.08;;;10.90;;
43998;SDS011;51319;52.162;5.302;2024-01-30T05:40:10;18.70;;;11.23;;
43998;SDS011;51319;52.162;5.302;2024-01-30T05:42:37;17.58;;;11.02;;
43998;SDS011;51319;52.162;5.302;2024-01-30T05:45:04;16.98;;;11.10;;
43998;SDS011;51319;52.162;5.302;2024-01-30T05:47:33;18.10;;;10.77;;
43998;SDS011;51319;52.162;5.302;2024-01-30T05:50:00;15.98;;;10.95;;
43998;SDS011;51319;52.162;5.302;2024-01-30T05:52:27;18.08;;;11.00;;
43998;SDS011;51319;52.162;5.302;2024-01-30T05:54:54;22.38;;;11.27;;
43998;SDS011;51319;52.162;5.302;2024-01-30T05:57:21;19.50;;;10.25;;
43998;SDS011;51319;52.162;5.302;2024-01-30T05:59:48;19.88;;;11.40;;
43998;SDS011;51319;52.162;5.302;2024-01-30T06:02:17;15.50;;;10.75;;
43998;SDS011;51319;52.162;5.302;2024-01-30T06:04:45;17.42;;;10.57;;
43998;SDS011;51319;52.162;5.302;2024-01-30T06:07:12;17.23;;;10.05;;
43998;SDS011;51319;52.162;5.302;2024-01-30T06:09:40;15.25;;;10.82;;
43998;SDS011;51319;52.162;5.302;2024-01-30T06:12:07;17.25;;;10.68;;
43998;SDS011;51319;52.162;5.302;2024-01-30T06:14:34;16.85;;;11.05;;
43998;SDS011;51319;52.162;5.302;2024-01-30T06:17:02;19.23;;;10.57;;
43998;SDS011;51319;52.162;5.302;2024-01-30T06:19:29;17.13;;;10.65;;
43998;SDS011;51319;52.162;5.302;2024-01-30T06:21:56;16.35;;;10.00;;
43998;SDS011;51319;52.162;5.302;2024-01-30T06:24:36;16.00;;;10.57;;
43998;SDS011;51319;52.162;5.302;2024-01-30T06:27:03;17.88;;;10.25;;
43998;SDS011;51319;52.162;5.302;2024-01-30T06:29:32;16.65;;;10.82;;
43998;SDS011;51319;52.162;5.302;2024-01-30T06:31:59;14.98;;;10.57;;
43998;SDS011;51319;52.162;5.302;2024-01-30T06:34:26;16.77;;;10.65;;
43998;SDS011;51319;52.162;5.302;2024-01-30T06:36:54;21.63;;;12.15;;
43998;SDS011;51319;52.162;5.302;2024-01-30T06:39:21;26.27;;;15.57;;
43998;SDS011;51319;52.162;5.302;2024-01-30T06:41:49;20.90;;;10.73;;
43998;SDS011;51319;52.162;5.302;2024-01-30T06:44:16;16.48;;;10.05;;
43998;SDS011;51319;52.162;5.302;2024-01-30T06:46:44;17.40;;;11.18;;
43998;SDS011;51319;52.162;5.302;2024-01-30T06:49:11;15.07;;;10.20;;
43998;SDS011;51319;52.162;5.302;2024-01-30T06:51:38;17.52;;;10.13;;
43998;SDS011;51319;52.162;5.302;2024-01-30T06:54:05;13.48;;;9.23;;
43998;SDS011;51319;52.162;5.302;2024-01-30T06:56:32;12.90;;;9.30;;
43998;SDS011;51319;52.162;5.302;2024-01-30T06:58:59;13.75;;;9.90;;
43998;SDS011;51319;52.162;5.302;2024-01-30T07:01:29;14.18;;;9.43;;
43998;SDS011;51319;52.162;5.302;2024-01-30T07:03:57;17.57;;;10.03;;
43998;SDS011;51319;52.162;5.302;2024-01-30T07:06:24;19.50;;;9.73;;
43998;SDS011;51319;52.162;5.302;2024-01-30T07:08:51;15.05;;;9.70;;
43998;SDS011;51319;52.162;5.302;2024-01-30T07:11:19;14.90;;;8.93;;
43998;SDS011;51319;52.162;5.302;2024-01-30T07:13:48;16.85;;;9.82;;
43998;SDS011;51319;52.162;5.302;2024-01-30T07:16:16;12.60;;;9.10;;
43998;SDS011;51319;52.162;5.302;2024-01-30T07:18:45;19.15;;;9.93;;
43998;SDS011;51319;52.162;5.302;2024-01-30T07:21:15;16.52;;;9.65;;
43998;SDS011;51319;52.162;5.302;2024-01-30T07:23:42;20.25;;;10.18;;
43998;SDS011;51319;52.162;5.302;2024-01-30T07:26:09;19.67;;;10.27;;
43998;SDS011;51319;52.162;5.302;2024-01-30T07:28:37;18.70;;;10.35;;
43998;SDS011;51319;52.162;5.302;2024-01-30T07:31:04;13.73;;;9.30;;
43998;SDS011;51319;52.162;5.302;2024-01-30T07:33:32;19.02;;;9.95;;
43998;SDS011;51319;52.162;5.302;2024-01-30T07:35:59;17.83;;;10.45;;
43998;SDS011;51319;52.162;5.302;2024-01-30T07:38:27;14.40;;;10.25;;
43998;SDS011;51319;52.162;5.302;2024-01-30T07:40:54;20.13;;;9.30;;
43998;SDS011;51319;52.162;5.302;2024-01-30T07:43:21;15.15;;;10.10;;
43998;SDS011;51319;52.162;5.302;2024-01-30T07:45:49;21.27;;;9.38;;
43998;SDS011;51319;52.162;5.302;2024-01-30T07:48:16;16.70;;;9.55;;
43998;SDS011;51319;52.162;5.302;2024-01-30T07:50:43;13.18;;;9.27;;
43998;SDS011;51319;52.162;5.302;2024-01-30T07:53:10;19.35;;;10.10;;
43998;SDS011;51319;52.162;5.302;2024-01-30T07:55:37;18.38;;;9.65;;
43998;SDS011;51319;52.162;5.302;2024-01-30T07:58:05;18.48;;;9.05;;
43998;SDS011;51319;52.162;5.302;2024-01-30T08:00:32;14.45;;;8.57;;
43998;SDS011;51319;52.162;5.302;2024-01-30T08:02:59;17.00;;;9.43;;
43998;SDS011;51319;52.162;5.302;2024-01-30T08:05:26;14.98;;;8.75;;
43998;SDS011;51319;52.162;5.302;2024-01-30T08:07:53;18.15;;;8.73;;
43998;SDS011;51319;52.162;5.302;2024-01-30T08:10:20;16.35;;;8.95;;
43998;SDS011;51319;52.162;5.302;2024-01-30T08:12:48;19.98;;;9.38;;
43998;SDS011;51319;52.162;5.302;2024-01-30T08:15:15;18.55;;;11.27;;
43998;SDS011;51319;52.162;5.302;2024-01-30T08:17:42;18.83;;;9.38;;
43998;SDS011;51319;52.162;5.302;2024-01-30T08:20:11;17.23;;;9.15;;
43998;SDS011;51319;52.162;5.302;2024-01-30T08:22:39;17.80;;;8.70;;
43998;SDS011;51319;52.162;5.302;2024-01-30T08:25:07;16.50;;;8.82;;
43998;SDS011;51319;52.162;5.302;2024-01-30T08:27:35;17.08;;;8.95;;
43998;SDS011;51319;52.162;5.302;2024-01-30T08:30:05;16.48;;;8.88;;
43998;SDS011;51319;52.162;5.302;2024-01-30T08:32:33;20.38;;;8.93;;
43998;SDS011;51319;52.162;5.302;2024-01-30T08:35:00;20.45;;;9.80;;
43998;SDS011;51319;52.162;5.302;2024-01-30T08:37:30;18.65;;;9.70;;
43998;SDS011;51319;52.162;5.302;2024-01-30T08:39:57;16.95;;;8.95;;
43998;SDS011;51319;52.162;5.302;2024-01-30T08:42:24;23.58;;;10.30;;
43998;SDS011;51319;52.162;5.302;2024-01-30T08:44:51;22.63;;;9.10;;
43998;SDS011;51319;52.162;5.302;2024-01-30T08:47:19;26.13;;;12.48;;
43998;SDS011;51319;52.162;5.302;2024-01-30T08:49:48;28.50;;;13.00;;
43998;SDS011;51319;52.162;5.302;2024-01-30T08:52:15;21.48;;;10.23;;
43998;SDS011;51319;52.162;5.302;2024-01-30T08:54:42;19.70;;;10.27;;
43998;SDS011;51319;52.162;5.302;2024-01-30T08:57:09;21.30;;;8.82;;
43998;SDS011;51319;52.162;5.302;2024-01-30T08:59:36;15.18;;;8.85;;
43998;SDS011;51319;52.162;5.302;2024-01-30T09:02:03;16.23;;;8.60;;
43998;SDS011;51319;52.162;5.302;2024-01-30T09:04:38;22.10;;;11.95;;
43998;SDS011;51319;52.162;5.302;2024-01-30T09:07:06;18.23;;;9.30;;
43998;SDS011;51319;52.162;5.302;2024-01-30T09:09:39;24.77;;;11.38;;
43998;SDS011;51319;52.162;5.302;2024-01-30T09:12:07;18.00;;;9.25;;
43998;SDS011;51319;52.162;5.302;2024-01-30T09:14:38;21.80;;;10.23;;
43998;SDS011;51319;52.162;5.302;2024-01-30T09:17:07;18.25;;;8.77;;
43998;SDS011;51319;52.162;5.302;2024-01-30T09:19:35;19.48;;;10.27;;
43998;SDS011;51319;52.162;5.302;2024-01-30T09:22:02;25.23;;;9.88;;
43998;SDS011;51319;52.162;5.302;2024-01-30T09:24:34;19.33;;;9.05;;
43998;SDS011;51319;52.162;5.302;2024-01-30T09:27:02;17.88;;;9.52;;
43998;SDS011;51319;52.162;5.302;2024-01-30T09:29:29;19.85;;;9.45;;
43998;SDS011;51319;52.162;5.302;2024-01-30T09:31:56;19.55;;;9.20;;
43998;SDS011;51319;52.162;5.302;2024-01-30T09:34:24;19.60;;;9.40;;
43998;SDS011;51319;52.162;5.302;2024-01-30T09:36:51;16.63;;;8.57;;
43998;SDS011;51319;52.162;5.302;2024-01-30T09:39:18;32.83;;;15.27;;
43998;SDS011;51319;52.162;5.302;2024-01-30T09:44:26;20.58;;;9.73;;
43998;SDS011;51319;52.162;5.302;2024-01-30T09:46:56;28.08;;;11.38;;
43998;SDS011;51319;52.162;5.302;2024-01-30T09:49:31;38.08;;;15.52;;
43998;SDS011;51319;52.162;5.302;2024-01-30T09:51:59;20.90;;;10.82;;
43998;SDS011;51319;52.162;5.302;2024-01-30T09:54:29;50.17;;;22.17;;
43998;SDS011;51319;52.162;5.302;2024-01-30T09:57:02;25.58;;;11.32;;
43998;SDS011;51319;52.162;5.302;2024-01-30T09:59:29;46.55;;;19.58;;
43998;SDS011;51319;52.162;5.302;2024-01-30T10:01:57;172.00;;;74.38;;
43998;SDS011;51319;52.162;5.302;2024-01-30T10:04:24;21.75;;;10.35;;
43998;SDS011;51319;52.162;5.302;2024-01-30T10:06:51;17.77;;;9.05;;
43998;SDS011;51319;52.162;5.302;2024-01-30T10:09:18;26.52;;;11.95;;
43998;SDS011;51319;52.162;5.302;2024-01-30T10:11:46;28.92;;;13.40;;
43998;SDS011;51319;52.162;5.302;2024-01-30T10:14:13;20.33;;;10.35;;
43998;SDS011;51319;52.162;5.302;2024-01-30T10:16:41;19.15;;;8.73;;
43998;SDS011;51319;52.162;5.302;2024-01-30T10:19:09;19.55;;;10.30;;
43998;SDS011;51319;52.162;5.302;2024-01-30T10:21:36;14.82;;;7.53;;
43998;SDS011;51319;52.162;5.302;2024-01-30T10:24:03;21.35;;;9.98;;
43998;SDS011;51319;52.162;5.302;2024-01-30T10:26:30;25.10;;;10.30;;
43998;SDS011;51319;52.162;5.302;2024-01-30T10:29:00;36.50;;;14.23;;
43998;SDS011;51319;52.162;5.302;2024-01-30T10:31:27;21.33;;;9.50;;
43998;SDS011;51319;52.162;5.302;2024-01-30T10:33:54;16.55;;;9.30;;
43998;SDS011;51319;52.162;5.302;2024-01-30T10:36:39;13.85;;;7.90;;
43998;SDS011;51319;52.162;5.302;2024-01-30T10:39:10;19.58;;;8.43;;
43998;SDS011;51319;52.162;5.302;2024-01-30T10:41:43;21.83;;;9.52;;
43998;SDS011;51319;52.162;5.302;2024-01-30T10:44:11;20.50;;;8.82;;
43998;SDS011;51319;52.162;5.302;2024-01-30T10:46:41;12.68;;;7.38;;
43998;SDS011;51319;52.162;5.302;2024-01-30T10:49:11;15.27;;;7.45;;
43998;SDS011;51319;52.162;5.302;2024-01-30T10:51:40;17.17;;;8.57;;
43998;SDS011;51319;52.162;5.302;2024-01-30T10:54:08;16.00;;;8.18;;
43998;SDS011;51319;52.162;5.302;2024-01-30T10:56:36;15.48;;;9.57;;
43998;SDS011;51319;52.162;5.302;2024-01-30T10:59:05;15.32;;;8.90;;
43998;SDS011;51319;52.162;5.302;2024-01-30T11:01:36;13.73;;;7.57;;
43998;SDS011;51319;52.162;5.302;2024-01-30T11:04:03;15.02;;;8.73;;
43998;SDS011;51319;52.162;5.302;2024-01-30T11:06:31;15.98;;;7.95;;
43998;SDS011;51319;52.162;5.302;2024-01-30T11:09:05;10.32;;;6.72;;
43998;SDS011;51319;52.162;5.302;2024-01-30T11:11:55;13.68;;;8.60;;
43998;SDS011;51319;52.162;5.302;2024-01-30T11:14:28;17.20;;;7.68;;
43998;SDS011;51319;52.162;5.302;2024-01-30T11:16:57;14.60;;;7.18;;
43998;SDS011;51319;52.162;5.302;2024-01-30T11:19:25;11.82;;;5.93;;
43998;SDS011;51319;52.162;5.302;2024-01-30T11:21:54;11.48;;;6.00;;
43998;SDS011;51319;52.162;5.302;2024-01-30T11:24:23;17.38;;;4.90;;
43998;SDS011;51319;52.162;5.302;2024-01-30T11:26:57;12.70;;;5.95;;
43998;SDS011;51319;52.162;5.302;2024-01-30T11:29:25;14.10;;;4.72;;
43998;SDS011;51319;52.162;5.302;2024-01-30T11:31:54;11.43;;;3.55;;
43998;SDS011;51319;52.162;5.302;2024-01-30T11:34:25;12.07;;;4.03;;
43998;SDS011;51319;52.162;5.302;2024-01-30T11:36:56;12.43;;;3.95;;
43998;SDS011;51319;52.162;5.302;2024-01-30T11:39:26;12.77;;;3.53;;
43998;SDS011;51319;52.162;5.302;2024-01-30T11:41:55;8.57;;;3.15;;
43998;SDS011;51319;52.162;5.302;2024-01-30T11:44:23;11.00;;;3.17;;
43998;SDS011;51319;52.162;5.302;2024-01-30T11:46:51;9.55;;;2.97;;
43998;SDS011;51319;52.162;5.302;2024-01-30T11:49:19;7.55;;;2.13;;
43998;SDS011;51319;52.162;5.302;2024-01-30T11:51:46;12.25;;;2.20;;
43998;SDS011;51319;52.162;5.302;2024-01-30T11:54:17;8.05;;;1.83;;
43998;SDS011;51319;52.162;5.302;2024-01-30T11:57:02;8.38;;;2.38;;
43998;SDS011;51319;52.162;5.302;2024-01-30T11:59:34;13.60;;;3.78;;
43998;SDS011;51319;52.162;5.302;2024-01-30T12:02:01;4.93;;;2.05;;
43998;SDS011;51319;52.162;5.302;2024-01-30T12:04:29;11.35;;;2.55;;
43998;SDS011;51319;52.162;5.302;2024-01-30T12:06:57;9.73;;;2.63;;
43998;SDS011;51319;52.162;5.302;2024-01-30T12:09:29;6.05;;;2.75;;
43998;SDS011;51319;52.162;5.302;2024-01-30T12:11:56;13.77;;;2.60;;
43998;SDS011;51319;52.162;5.302;2024-01-30T12:14:23;4.85;;;2.10;;
43998;SDS011;51319;52.162;5.302;2024-01-30T12:16:51;9.43;;;2.85;;
43998;SDS011;51319;52.162;5.302;2024-01-30T12:19:30;6.75;;;2.58;;
43998;SDS011;51319;52.162;5.302;2024-01-30T12:22:06;9.82;;;2.08;;
43998;SDS011;51319;52.162;5.302;2024-01-30T12:24:34;10.05;;;2.97;;
43998;SDS011;51319;52.162;5.302;2024-01-30T12:27:01;13.60;;;2.85;;
43998;SDS011;51319;52.162;5.302;2024-01-30T12:29:31;12.70;;;3.45;;
43998;SDS011;51319;52.162;5.302;2024-01-30T12:32:05;11.98;;;3.80;;
43998;SDS011;51319;52.162;5.302;2024-01-30T12:34:32;8.05;;;2.90;;
43998;SDS011;51319;52.162;5.302;2024-01-30T12:37:30;12.82;;;5.28;;
43998;SDS011;51319;52.162;5.302;2024-01-30T12:40:00;8.98;;;2.60;;
43998;SDS011;51319;52.162;5.302;2024-01-30T12:42:29;12.57;;;3.08;;
43998;SDS011;51319;52.162;5.302;2024-01-30T12:44:59;16.13;;;4.38;;
43998;SDS011;51319;52.162;5.302;2024-01-30T12:47:26;7.87;;;2.47;;
43998;SDS011;51319;52.162;5.302;2024-01-30T12:49:53;12.02;;;3.55;;
43998;SDS011;51319;52.162;5.302;2024-01-30T12:52:21;8.05;;;2.28;;
43998;SDS011;51319;52.162;5.302;2024-01-30T12:54:49;8.75;;;2.50;;
43998;SDS011;51319;52.162;5.302;2024-01-30T12:57:17;11.20;;;3.55;;
43998;SDS011;51319;52.162;5.302;2024-01-30T12:59:45;8.73;;;3.45;;
43998;SDS011;51319;52.162;5.302;2024-01-30T13:02:13;12.55;;;4.80;;
43998;SDS011;51319;52.162;5.302;2024-01-30T13:04:41;9.73;;;3.28;;
43998;SDS011;51319;52.162;5.302;2024-01-30T13:07:12;13.63;;;2.58;;
43998;SDS011;51319;52.162;5.302;2024-01-30T13:09:39;21.27;;;8.68;;
43998;SDS011;51319;52.162;5.302;2024-01-30T13:12:06;11.57;;;2.97;;
43998;SDS011;51319;52.162;5.302;2024-01-30T13:14:33;6.88;;;2.15;;
43998;SDS011;51319;52.162;5.302;2024-01-30T13:17:00;5.47;;;1.23;;
43998;SDS011;51319;52.162;5.302;2024-01-30T13:19:27;10.50;;;3.33;;
43998;SDS011;51319;52.162;5.302;2024-01-30T13:21:54;11.43;;;3.42;;
43998;SDS011;51319;52.162;5.302;2024-01-30T13:24:24;11.20;;;3.75;;
43998;SDS011;51319;52.162;5.302;2024-01-30T13:26:51;4.32;;;1.48;;
43998;SDS011;51319;52.162;5.302;2024-01-30T13:29:18;7.72;;;1.80;;
43998;SDS011;51319;52.162;5.302;2024-01-30T13:31:45;10.07;;;2.83;;
43998;SDS011;51319;52.162;5.302;2024-01-30T13:34:13;10.30;;;2.55;;
43998;SDS011;51319;52.162;5.302;2024-01-30T13:36:41;5.30;;;1.58;;
43998;SDS011;51319;52.162;5.302;2024-01-30T13:39:08;4.07;;;1.50;;
43998;SDS011;51319;52.162;5.302;2024-01-30T13:41:37;12.38;;;2.75;;
43998;SDS011;51319;52.162;5.302;2024-01-30T13:44:07;6.95;;;2.17;;
43998;SDS011;51319;52.162;5.302;2024-01-30T13:46:35;7.15;;;2.22;;
43998;SDS011;51319;52.162;5.302;2024-01-30T13:49:02;5.70;;;2.20;;
43998;SDS011;51319;52.162;5.302;2024-01-30T13:51:30;8.85;;;2.75;;
43998;SDS011;51319;52.162;5.302;2024-01-30T13:53:57;4.85;;;2.08;;
43998;SDS011;51319;52.162;5.302;2024-01-30T13:56:24;8.23;;;2.67;;
43998;SDS011;51319;52.162;5.302;2024-01-30T13:58:53;8.68;;;2.33;;
43998;SDS011;51319;52.162;5.302;2024-01-30T14:01:22;6.63;;;2.42;;
43998;SDS011;51319;52.162;5.302;2024-01-30T14:03:49;12.60;;;2.47;;
43998;SDS011;51319;52.162;5.302;2024-01-30T14:06:16;5.47;;;2.45;;
43998;SDS011;51319;52.162;5.302;2024-01-30T14:08:45;8.55;;;2.88;;
43998;SDS011;51319;52.162;5.302;2024-01-30T14:11:22;8.52;;;3.33;;
43998;SDS011;51319;52.162;5.302;2024-01-30T14:13:49;14.45;;;3.08;;
43998;SDS011;51319;52.162;5.302;2024-01-30T14:16:17;9.23;;;3.63;;
43998;SDS011;51319;52.162;5.302;2024-01-30T14:18:44;9.27;;;3.40;;
43998;SDS011;51319;52.162;5.302;2024-01-30T14:21:11;6.82;;;2.60;;
43998;SDS011;51319;52.162;5.302;2024-01-30T14:23:38;9.23;;;3.47;;
43998;SDS011;51319;52.162;5.302;2024-01-30T14:26:05;14.38;;;3.08;;
43998;SDS011;51319;52.162;5.302;2024-01-30T14:28:32;10.70;;;2.95;;
43998;SDS011;51319;52.162;5.302;2024-01-30T14:31:00;4.40;;;2.83;;
43998;SDS011;51319;52.162;5.302;2024-01-30T14:33:27;8.57;;;2.67;;
43998;SDS011;51319;52.162;5.302;2024-01-30T14:35:54;5.53;;;2.70;;